2016 Kinetic Kids 5K & 10K Results

[ 10K | 5K ]
2016 Kinetic Kids 5K & 10K
10K Results
Age Group
Pos
Gender
Pos
Overall
Pos
Name Race No Finish
Time
Pace
Overall
Female
1 1 3 Adriana Garcia 945 00:43:54 7:04 min/m
Male
1 1 1 Dave Cauthon 646 00:38:25 6:11 min/m
Ages 15 - 19
Male
1 2 2 Luke Powers 808 00:41:26 6:40 min/m
2 10 26 Sebastian Salazar 834 01:01:56 9:59 min/m
Ages 20 - 29
Female
1 3 7 Bernadette Byars 638 00:47:51 7:43 min/m
2 6 11 Courtney Brooks 632 00:51:27 8:17 min/m
3 7 12 Erica Garcia 698 00:51:31 8:18 min/m
4 9 14 Sara Logan 902 00:53:20 8:36 min/m
5 10 18 Lindsay Woods 878 00:54:44 8:49 min/m
6 11 19 Danielle Leal 881 00:55:42 8:58 min/m
7 15 24 Joy Holland 733 00:57:23 9:15 min/m
8 17 28 Kristina Munoz 787 01:02:21 10:03 min/m
9 18 30 Ashley Burgamy 637 01:03:55 10:18 min/m
10 20 32 Ashley Dukatz 682 01:04:50 10:27 min/m
11 28 41 Kathleen Venincasa 867 01:13:23 11:50 min/m
Male
1 3 4 Nick Honeggar 734 00:45:24 7:19 min/m
2 8 17 James Garza 700 00:54:33 8:47 min/m
3 14 43 Victor Olivares 897 01:19:59 12:54 min/m
Ages 30 - 39
Female
1 2 5 Laura Aguilar 603 00:46:49 7:33 min/m
2 4 8 Crystal Gibbs 961 00:48:01 7:44 min/m
3 5 9 Marina Gavito 702 00:48:47 7:52 min/m
4 8 13 Lin Adams 601 00:53:07 8:33 min/m
5 14 23 Lupe Rodriguez 827 00:57:09 9:12 min/m
6 19 31 Tonya Cooper 658 01:04:03 10:19 min/m
7 24 36 Miranda Briones 631 01:10:57 11:26 min/m
8 27 40 Olivia Dominguez-Perez 676 01:13:23 11:50 min/m
9 29 42 Andrea Benavides 619 01:15:10 12:07 min/m
10 32 49 Lori Garza 965 08:04:33 18:09 min/m
Male
1 5 10 Joshua Herrera 728 00:51:14 8:15 min/m
2 11 27 Javier Salazar 832 01:02:21 10:03 min/m
3 13 39 Jason Perez 805 01:13:23 11:50 min/m
4 16 47 Matt Darke 665 02:08:16 20:41 min/m
5 18 50 Richie Valadez 865 08:54:51 26:15 min/m
Ages 40 - 49
Female
1 16 25 Krista Boezinger 622 01:00:35 9:46 min/m
2 21 33 Erica Hernandez 726 01:06:23 10:42 min/m
3 22 34 Kristie Estes 690 01:08:23 11:01 min/m
4 23 35 Evylen Cordill 659 01:10:09 11:18 min/m
5 25 37 Kimberly Salazar 833 01:11:19 11:30 min/m
6 30 44 Laura Moodie 784 01:24:37 13:38 min/m
7 31 45 Debra Velasquez 866 01:29:24 14:25 min/m
Male
1 4 6 Mario Fierro 941 00:47:23 7:38 min/m
2 6 15 Joseph Thele 855 00:54:04 8:43 min/m
3 7 16 Gathan Arevalos 609 00:54:28 8:47 min/m
4 12 29 Gino Gutierrez 721 01:03:33 10:14 min/m
5 17 48 Alex Darke 664 02:08:17 20:41 min/m
Ages 50 - 59
Female
1 12 20 Susan Gershenhorn 703 00:56:41 9:08 min/m
2 13 22 Janice Troy 863 00:57:02 9:11 min/m
3 26 38 Debra Veazey 926 01:12:28 11:41 min/m
Male
1 9 21 Larry Browder 634 00:56:51 9:10 min/m
2 15 46 Clay Freshe 967 01:29:31 14:26 min/m
Race timing by RRPTiming.com!

 

[ 10K | 5K ]

2016 Kinetic Kids 5K & 10K
5K Results
Age Group
Pos
Gender
Pos
Overall
Pos
Name Race No Finish
Time
Pace
Overall
Female
1 1 5 Maeve Goetz 707 00:21:15 6:51 min/m
Male
1 1 1 Pete Belman 923 00:18:20 5:54 min/m
Ages 10 & Under
Female
1 36 83 Shylah Abbott 907 00:35:13 11:21 min/m
2 77 140 Emma Sanchez 835 00:48:57 15:47 min/m
Male
1 38 55 Sawyer Parks 800 00:31:03 10:00 min/m
2 45 80 Darian Abbott 908 00:35:02 11:17 min/m
3 56 113 James Torres 860 00:42:03 13:33 min/m
4 59 119 Eli Apodaca 605 00:43:59 14:11 min/m
Ages 11 - 14
Female
1 40 88 Caroline Bowling 624 00:36:35 11:47 min/m
2 56 109 Destiny Griffin 714 00:41:47 13:28 min/m
3 61 121 Maggie Maguire 765 00:44:23 14:18 min/m
4 62 122 Beth Maguire 762 00:44:25 14:19 min/m
5 79 143 Mea Regino 911 00:49:19 15:54 min/m
Male
1 8 11 Luke Smith 845 00:22:37 7:17 min/m
2 10 13 Jonathan Kelly 895 00:22:44 7:19 min/m
3 26 31 Dylan Avella 880 00:26:59 8:42 min/m
4 28 36 Matt Gibbons 706 00:28:23 9:09 min/m
5 30 38 Evan Gibbs 886 00:28:52 9:18 min/m
6 31 41 Taylor Bowling 627 00:29:15 9:26 min/m
7 42 63 Mark Torres 861 00:32:00 10:19 min/m
8 47 82 Stephen Veazey 927 00:35:11 11:20 min/m
9 52 101 Ethan Nelson 896 00:40:14 12:58 min/m
10 57 116 Ethan Nelson 792 00:43:22 13:59 min/m
11 61 127 Jason Sanchez 836 00:46:02 14:50 min/m
12 71 171 Simon Bosquez 939 01:03:28 20:28 min/m
Ages 15 - 19
Female
1 8 35 Lillian Bautista 617 00:28:20 9:08 min/m
2 84 149 Aiyanna Doss 954 00:49:42 16:01 min/m
3 102 174 Alia Reed 978 01:07:23 21:44 min/m
Male
1 6 9 Cristian Sotilo 968 00:22:08 7:08 min/m
2 18 22 Rudy Huerta 737 00:24:30 7:54 min/m
Ages 20 - 29
Female
1 6 32 Ana Gaona 917 00:27:05 8:44 min/m
2 12 47 Claire Clark 930 00:30:00 9:40 min/m
3 13 48 Lyndi Brewer 630 00:30:02 9:41 min/m
4 17 54 Sarah Madden 761 00:31:00 9:59 min/m
5 18 56 Beth Devos 669 00:31:22 10:06 min/m
6 19 60 Brooke Rothe 828 00:31:38 10:12 min/m
7 23 66 Kelly Doty 681 00:32:36 10:30 min/m
8 32 75 Amber Quiroz 811 00:34:14 11:02 min/m
9 39 87 Tiffany Neal 791 00:36:29 11:46 min/m
10 42 91 Laura Hegstrom 884 00:37:06 11:58 min/m
11 43 93 Crystal Esquivel 689 00:37:27 12:04 min/m
12 63 123 Krystal Griffin 717 00:44:45 14:26 min/m
13 65 125 Haleigh Taylor 854 00:45:32 14:41 min/m
14 66 126 Nicole Roberts 821 00:45:33 14:41 min/m
15 68 129 Kristen Rodriguez 825 00:46:07 14:52 min/m
16 69 130 Megan Kostelnik 744 00:46:08 14:52 min/m
17 70 133 Reyna Lopez 918 00:46:54 15:07 min/m
18 90 156 Jamie Wilkinson 871 00:55:20 17:50 min/m
19 98 167 Sarah Dixon 673 01:00:00 19:21 min/m
Male
1 3 3 Austin Dixon 671 00:20:25 6:34 min/m
2 13 16 John Doty 680 00:23:21 7:31 min/m
3 15 18 Kyle Gibbs 885 00:23:58 7:43 min/m
4 19 24 Boone Mokry 781 00:26:23 8:30 min/m
5 22 27 Galan Arevalos 608 00:26:54 8:40 min/m
6 27 34 Eloy Ruiz 899 00:28:15 9:06 min/m
7 35 46 Derek Clark 931 00:30:00 9:40 min/m
8 36 49 Travis Stewart 850 00:30:02 9:41 min/m
9 54 110 Brandyn Griffin 900 00:41:48 13:28 min/m
10 63 132 Jonathon Facha 958 00:46:52 15:07 min/m
11 67 157 Jeffrey Lopez 758 00:55:23 17:51 min/m
12 68 163 Justin Chavez 650 00:58:13 18:46 min/m
13 69 166 Zackary Dixon 674 00:59:57 19:20 min/m
Ages 30 - 39
Female
1 4 19 Sara Broullard 972 00:24:03 7:45 min/m
2 5 23 Renee Pina 883 00:25:30 8:13 min/m
3 10 40 Zerique Montgomery 783 00:29:09 9:24 min/m
4 14 50 Marisol Bailon 616 00:30:42 9:53 min/m
5 15 51 Kristina Jones 742 00:30:51 9:56 min/m
6 16 52 Maria Lopez-Welch 759 00:30:53 9:57 min/m
7 20 61 Elizabeth Marsh 768 00:31:48 10:15 min/m
8 21 62 Crystal Trigo 862 00:31:59 10:18 min/m
9 24 67 Reanee Williams 875 00:32:55 10:36 min/m
10 26 69 Christina Knies 743 00:33:07 10:40 min/m
11 27 70 Stephanie Shepardson 841 00:33:14 10:43 min/m
12 30 73 Catalina Ayala 936 00:33:30 10:48 min/m
13 31 74 Clarrissa Rodriguez 824 00:33:38 10:50 min/m
14 33 76 Christine Kelly 893 00:34:17 11:03 min/m
15 37 84 Katie Nitzburg 795 00:35:32 11:27 min/m
16 44 94 Nina Contreras 654 00:38:12 12:19 min/m
17 46 97 Tiffany Ruis 830 00:38:58 12:33 min/m
18 47 98 Maureen Brunetti 636 00:39:24 12:42 min/m
19 49 100 Molly Lawlor 944 00:40:01 12:54 min/m
20 50 102 Loreily Ortiz 798 00:40:14 12:58 min/m
21 52 104 Patricia Dominguez 675 00:40:41 13:07 min/m
22 54 107 Eva Woods 877 00:41:16 13:18 min/m
23 57 111 Cynthia Parks 799 00:41:50 13:29 min/m
24 58 114 Angela Riojas 819 00:42:05 13:34 min/m
25 64 124 Elizabeth Reyes 817 00:45:01 14:31 min/m
26 67 128 Gloria Hernandez 727 00:46:03 14:51 min/m
27 74 137 Rebecca Attridge 610 00:48:52 15:45 min/m
28 76 139 Kim Cauthon 647 00:48:53 15:45 min/m
29 78 141 Deanna Cornelius 660 00:48:58 15:47 min/m
30 89 154 Tanya Perez 806 00:53:13 17:09 min/m
31 97 165 Caroline Schwenker 922 00:59:32 19:11 min/m
32 101 173 Kim Gerston 704 01:07:14 21:41 min/m
33 104 177 Michelle Fuentes 697 01:14:56 24:10 min/m
Male
1 5 7 Blake Closner 651 00:22:01 7:06 min/m
2 7 10 Lance Rothe 829 00:22:12 7:09 min/m
3 9 12 Brice Nesbitt 957 00:22:43 7:19 min/m
4 11 14 Russell Attridge 611 00:22:47 7:20 min/m
5 14 17 Joshua Way 869 00:23:54 7:42 min/m
6 17 21 Nicholas Vera 868 00:24:20 7:50 min/m
7 20 25 Tim Cannon 642 00:26:51 8:39 min/m
8 39 57 Brett Devos 670 00:31:24 10:07 min/m
9 46 81 Frank Tobias Iii 858 00:35:09 11:20 min/m
10 48 86 Richard Neal 790 00:36:29 11:45 min/m
11 53 106 Arturo Dehoyos 667 00:40:54 13:11 min/m
12 60 120 Sean Apodaca 607 00:44:00 14:11 min/m
13 62 131 Juan Sanchez 838 00:46:24 14:57 min/m
14 64 142 Dylan Nelson 898 00:49:18 15:53 min/m
15 65 144 John Regino 812 00:49:19 15:54 min/m
Ages 40 - 49
Female
1 2 6 Jen Rulm 831 00:21:51 7:02 min/m
2 3 8 Jackie Riemenschneider-Mccrary 818 00:22:06 7:07 min/m
3 22 64 Amy Myers 788 00:32:03 10:20 min/m
4 25 68 Libby Apodaca 606 00:33:02 10:39 min/m
5 28 71 Anita Mosley 785 00:33:16 10:43 min/m
6 29 72 Jennifer Smith 844 00:33:30 10:48 min/m
7 38 85 Lisa Cason 645 00:36:25 11:44 min/m
8 41 89 Laura Bowling 626 00:36:49 11:52 min/m
9 45 95 Claudette Guerrero 719 00:38:22 12:22 min/m
10 48 99 Tammy Strysick 851 00:39:45 12:49 min/m
11 53 105 Julie Maguire 764 00:40:54 13:11 min/m
12 59 115 Leticia Garza 701 00:42:28 13:41 min/m
13 60 118 Pamela Nelson 793 00:43:53 14:09 min/m
14 71 134 Zelda Gonzales 709 00:47:26 15:17 min/m
15 72 135 Tracie Mendoza 779 00:48:23 15:36 min/m
16 75 138 Becky Brady 628 00:48:52 15:45 min/m
17 81 146 Meredith Dunn 683 00:49:25 15:56 min/m
18 87 152 Robin Shiflett 842 00:50:08 16:10 min/m
19 95 162 Tutti Spindola 846 00:58:00 18:42 min/m
20 99 168 Rosalee Howard 735 01:02:52 20:16 min/m
21 100 169 Joy Bosquez 938 01:03:26 20:27 min/m
22 103 175 Samia Reed 976 01:07:29 21:45 min/m
Male
1 4 4 Fred Bailon 615 00:20:51 6:43 min/m
2 12 15 Rick Lagrange 749 00:22:51 7:22 min/m
3 16 20 Sammy Mccrary 774 00:24:07 7:46 min/m
4 21 26 Jason Smith 843 00:26:53 8:40 min/m
5 25 30 Robert Avella 613 00:26:59 8:41 min/m
6 29 37 Clifford Gibbons 705 00:28:24 9:09 min/m
7 32 42 Rob Olivares 796 00:29:21 9:27 min/m
8 37 53 Miguel Garcia 699 00:30:53 9:57 min/m
9 41 59 Jason Bowling 625 00:31:34 10:10 min/m
10 50 92 Carlos I Sanchez Jr 840 00:37:15 12:00 min/m
11 51 96 John Maguire 763 00:38:55 12:33 min/m
12 70 170 Frank Bosquez 937 01:03:27 20:28 min/m
13 73 176 David Reed 977 01:11:20 23:00 min/m
Ages 50 - 59
Female
1 7 33 Bernadette Beck 618 00:27:55 9:00 min/m
2 11 43 Kim Hauser 723 00:29:26 9:29 min/m
3 34 77 Chris Quintanilla 920 00:34:33 11:08 min/m
4 35 78 Rebecca Toedt 859 00:34:33 11:08 min/m
5 51 103 Laurie Delong 668 00:40:32 13:04 min/m
6 55 108 Catherine Kurkowski 745 00:41:25 13:21 min/m
7 83 148 Marla Svedeman 852 00:49:38 16:00 min/m
8 85 150 Sheri Doss 679 00:49:44 16:02 min/m
9 86 151 Marta Rodriguez 826 00:50:07 16:09 min/m
10 88 153 Jackie Browder 633 00:50:36 16:19 min/m
11 93 160 Magdalena Trujillo 864 00:56:38 18:15 min/m
12 94 161 Vicki Belcher 952 00:56:46 18:18 min/m
13 105 178 Sue Gregory 712 01:20:12 25:52 min/m
Male
1 2 2 Malachi Braddy 963 00:19:31 6:17 min/m
2 23 28 Michael Rodriguez 956 00:26:57 8:41 min/m
3 24 29 Phil Dixon 672 00:26:58 8:41 min/m
4 33 44 Brian Booker 623 00:29:40 9:34 min/m
5 34 45 Calvin Griffin 713 00:29:47 9:36 min/m
6 40 58 Rodney Mosley 786 00:31:31 10:09 min/m
7 43 65 George Powers 807 00:32:19 10:25 min/m
8 44 79 Harold Doss 678 00:34:47 11:12 min/m
9 49 90 James Morales 910 00:36:53 11:53 min/m
10 58 117 Joe Villarreal 921 00:43:26 14:00 min/m
Ages 60 - 100
Female
1 73 136 Liz Flores 694 00:48:38 15:41 min/m
2 82 147 Paula Neven 794 00:49:38 16:00 min/m
3 91 158 Suzanne Stanley 848 00:55:54 18:01 min/m
4 92 159 Darla Peek 951 00:56:26 18:12 min/m
5 96 164 Alicia Chavez 649 00:58:50 18:58 min/m
Male
1 55 112 Alexander Cunningham 661 00:41:53 13:30 min/m
2 66 155 Dr. Earl Stanley 847 00:54:59 17:44 min/m
3 74 179 Jim Lazarus 750 01:20:18 25:54 min/m
No Ages
Female
  9 39 Mara Rincon 959 00:29:02 9:21 min/m
  80 145 Amanda Sanchez 964 00:49:19 15:54 min/m
Male
  72 172 Seth Bosquez 962 01:03:52 20:36 min/m
Race timing by RRPTiming.com!

© copyright 2013, RRPTiming.com. RRPTiming is a Redemption Race Productions site. Website by Rich.